Date,TemperatureHighF,TemperatureAvgF,TemperatureLowF,DewpointHighF,DewpointAvgF,DewpointLowF,HumidityHigh,HumidityAvg,HumidityLow,PressureMaxIn,PressureMinIn,WindSpeedMaxMPH,WindSpeedAvgMPH,GustSpeedMaxMPH,PrecipitationSumIn
2013-2-21,27.1,27.1,26.8,32.0,32.0,32.0,36,35,34,29.97,29.91,10,7,15,0.00
2013-2-22,63.7,37.1,26.4,32.0,32.0,32.0,46,30,11,30.21,29.97,11,4,17,0.00
2013-2-23,44.2,37.8,35.1,37.0,32.2,32.0,90,51,32,30.15,29.74,8,2,13,0.08
2013-2-24,40.1,37.2,33.8,39.0,33.1,32.0,91,79,71,29.74,29.50,10,3,17,0.72
2013-3-17,35.1,33.4,31.6,32.0,32.0,32.0,18,17,17,30.09,30.00,7,5,11,0.00
2013-4-12,40.5,40.0,39.7,41.0,39.8,39.0,97,97,97,29.65,29.59,9,3,12,0.00
2013-4-13,59.7,45.8,37.4,39.0,34.6,32.0,97,64,19,29.74,29.59,9,2,12,0.00
2013-4-14,65.3,50.5,42.8,36.0,32.0,32.0,58,29,14,30.03,29.74,12,4,18,0.00
2013-4-15,63.7,49.3,37.4,32.0,32.0,32.0,47,31,13,30.21,30.03,10,4,12,0.00
2013-4-16,69.1,55.6,41.4,43.0,34.0,32.0,76,40,14,30.24,29.88,16,6,18,0.00
2013-4-17,72.9,63.8,53.2,52.0,34.8,32.0,75,26,11,30.15,29.88,15,6,18,0.00
2013-4-18,66.6,56.0,46.8,34.0,32.0,32.0,47,23,12,30.24,29.97,12,4,15,0.00
2013-4-19,77.5,64.9,53.8,64.0,54.0,34.0,97,72,27,29.97,29.47,17,7,24,0.00
2013-4-20,67.3,57.3,46.4,64.0,41.7,32.0,97,47,13,30.03,29.41,15,6,17,0.64
2013-4-21,59.7,48.5,37.0,32.0,32.0,32.0,41,18,12,30.50,30.03,11,5,17,0.00
2013-4-22,54.9,45.7,38.7,32.0,32.0,32.0,55,36,15,30.59,30.42,12,5,14,0.00
2013-4-23,44.1,42.5,40.8,45.0,39.6,32.0,97,84,43,30.42,29.94,10,6,12,0.00
2013-4-24,76.8,57.1,43.3,48.0,39.0,32.0,97,58,13,29.94,29.62,12,4,17,0.00
2013-4-25,70.9,59.8,50.2,55.0,37.2,32.0,93,38,11,30.09,29.65,12,6,19,0.00
2013-4-26,60.1,52.3,47.3,37.0,32.9,32.0,66,31,14,30.24,30.09,11,5,13,0.00
2013-4-27,71.2,56.7,44.1,41.0,32.7,32.0,67,31,11,30.24,30.12,10,3,12,0.00
2013-4-28,77.0,59.0,45.1,32.0,32.0,32.0,50,23,10,30.15,30.03,12,4,15,0.00
2013-4-29,75.2,60.6,50.5,37.0,33.1,32.0,61,27,10,30.09,30.00,11,5,15,0.00
2013-4-30,72.7,59.8,49.8,32.0,32.0,32.0,32,17,11,30.18,30.09,10,3,11,0.00
2013-5-1,74.7,60.1,45.0,32.0,32.0,32.0,51,20,10,30.30,30.18,9,2,12,0.00
2013-5-2,84.6,60.3,48.7,43.0,32.4,32.0,69,32,10,30.30,30.18,13,3,16,0.00
2013-5-3,62.1,52.9,44.8,41.0,32.5,32.0,76,41,24,30.36,30.21,10,4,12,0.00
2013-5-4,61.2,51.7,44.2,39.0,32.3,32.0,65,42,25,30.21,30.15,10,4,12,0.00
2013-5-5,63.5,51.8,40.3,45.0,34.5,32.0,87,48,16,30.15,30.09,9,4,12,0.00
2013-5-6,67.3,53.4,42.6,48.0,40.7,32.0,97,65,23,30.12,29.97,9,3,12,0.00
2013-5-7,81.7,65.4,49.3,50.0,39.9,32.0,81,43,11,30.00,29.91,9,3,12,0.00
2013-5-8,71.1,63.3,57.7,61.0,56.2,48.0,97,78,50,30.03,29.88,10,4,15,0.83
2013-5-9,71.6,60.8,57.4,66.0,59.3,50.0,97,93,49,29.88,29.71,8,1,10,2.79
2013-5-10,85.6,68.0,57.4,63.0,48.9,32.0,97,58,13,29.77,29.71,9,2,10,0.00
2013-5-11,73.4,65.8,60.6,63.0,56.8,45.0,95,74,44,29.74,29.53,18,5,18,0.00
2013-5-12,75.7,64.1,53.6,63.0,48.2,32.0,97,58,13,29.62,29.38,14,5,16,0.00
2013-5-13,64.8,54.8,46.6,32.0,32.0,32.0,36,17,12,29.85,29.62,12,6,15,0.00
2013-5-14,64.9,54.1,43.0,32.0,32.0,32.0,49,22,13,29.88,29.80,11,5,13,0.00
2013-5-15,71.6,57.4,42.1,54.0,36.4,32.0,90,38,11,29.88,29.50,11,4,14,0.00
2013-5-16,84.6,70.2,52.9,54.0,37.7,32.0,97,34,10,29.62,29.44,15,6,21,0.00
2013-5-17,72.3,64.4,55.6,37.0,32.3,32.0,46,21,11,30.03,29.62,11,5,15,0.00
2013-5-18,80.1,64.2,50.2,46.0,35.3,32.0,79,34,10,30.12,30.03,10,4,15,0.00
2013-5-19,76.8,60.6,53.2,57.0,44.5,32.0,94,60,15,30.18,30.06,10,3,13,0.00
2013-5-20,86.7,70.4,57.9,61.0,52.5,39.0,97,62,19,30.06,29.74,9,2,12,0.00
2013-5-21,79.7,64.4,53.1,61.0,53.5,43.0,95,71,30,29.83,29.71,11,4,13,0.00
2013-5-22,72.7,58.2,51.6,59.0,53.2,45.0,97,84,40,29.88,29.71,10,2,10,0.00
2013-5-23,78.6,65.9,55.9,66.0,60.9,55.0,97,84,52,29.77,29.65,15,3,24,0.00
2013-5-24,74.5,65.1,52.3,66.0,61.8,50.0,97,89,54,29.65,29.47,10,3,14,1.39
2013-5-25,55.4,50.6,43.3,52.0,47.9,37.0,95,90,81,29.65,29.53,11,5,14,0.28
2013-5-26,63.0,51.1,41.2,43.0,34.7,32.0,93,51,16,29.91,29.53,14,6,17,0.00
2013-5-27,75.9,62.3,44.6,43.0,33.8,32.0,84,33,10,30.00,29.88,11,5,16,0.00
2013-5-28,75.0,63.8,50.2,48.0,37.1,32.0,73,37,10,30.06,29.97,10,3,12,0.00
2013-5-29,76.3,64.9,60.3,64.0,59.0,48.0,97,82,47,30.03,29.83,7,2,8,1.15
2013-5-30,92.3,79.3,64.2,66.0,53.7,39.0,97,51,17,29.91,29.83,12,4,16,0.20
2013-5-31,99.1,85.5,70.0,66.0,47.7,32.0,81,36,10,29.91,29.74,12,6,17,0.00
2013-6-1,98.1,83.9,70.9,63.0,48.0,32.0,68,34,10,29.80,29.68,13,7,17,0.00
2013-6-2,94.5,80.8,70.3,66.0,54.8,32.0,85,48,14,29.71,29.53,19,8,27,0.00
2013-6-3,80.4,71.8,65.8,68.0,59.5,32.0,96,69,17,29.68,29.56,11,4,13,0.32
2013-6-4,74.8,67.2,54.7,34.0,32.0,32.0,42,20,10,29.91,29.65,12,5,14,0.00
2013-6-5,82.8,68.9,55.8,41.0,33.2,32.0,57,24,10,30.00,29.91,9,3,11,0.00
2013-6-6,81.5,68.7,58.8,46.0,35.6,32.0,55,29,11,30.00,29.91,9,3,12,0.00
2013-6-7,63.1,57.3,55.0,59.0,54.6,43.0,97,90,50,29.94,29.65,10,3,15,2.81
2013-6-8,81.0,65.7,54.9,61.0,52.3,43.0,97,68,27,29.83,29.44,12,3,16,1.85
2013-6-9,86.0,73.6,60.1,59.0,42.2,32.0,91,39,11,29.97,29.83,10,5,14,0.00
2013-6-10,73.8,65.4,58.6,61.0,51.3,36.0,97,63,26,30.03,29.85,9,4,11,0.71
2013-6-11,66.9,60.4,57.0,63.0,57.6,52.0,97,89,62,29.85,29.38,12,3,18,1.90
2013-6-12,73.8,65.0,57.7,61.0,47.4,32.0,97,59,22,29.65,29.38,14,4,20,0.00
2013-6-13,72.5,61.5,53.8,59.0,48.5,32.0,97,66,22,29.65,29.50,7,2,9,0.64
2013-6-14,77.0,63.3,52.3,57.0,45.3,32.0,97,61,18,29.59,29.47,7,2,10,1.20
2013-6-15,83.5,73.2,59.7,54.0,36.1,32.0,76,25,10,29.77,29.59,12,5,14,0.00
2013-6-16,82.4,67.6,58.8,39.0,34.3,32.0,47,28,11,29.77,29.68,11,5,13,0.00